5AL8 weather

Fairlane Airport
Samson, Alabama, United States

Public forecast

Using degrees Fahrenheit for public forecast. Weather courtesy of forecast.io.

METAR (pilot weather report)

Closest report is Enterprise Municipal Airport, 12.6 nm (23.4 km) NNE. Retrieved 2017/10/21 12:35 UTC (25 minutes ago):

KEDN 211235Z AUTO 09006KT 10SM CLR 17/17 A3018 RMK AO2 T01710165

TAF (pilot weather forecast)

Closest forecast is Cairns AAF (Fort Rucker) Air Field, 17.6 nm (32.7 km) NE. Retrieved 2017/10/21 08:05 UTC (5 hours ago):

TAF KOZR 210800Z 2108/2214 09006KT 9999 SCT030 QNH3014INS BECMG 2116/2117 10010G15KT 9999 FEW030 QNH3013INS BECMG 2123/2124 10006KT 9999 SCT030 QNH3015INS TX28/2120Z TN13/2112Z